createdAt,value
2018-12-02T00:00:48.637Z,99638.82
2018-12-02T00:03:17.548Z,99637.58
2018-12-02T00:05:46.496Z,99636.30
2018-12-02T00:08:15.584Z,99632.06
2018-12-02T00:10:44.540Z,99635.55
2018-12-02T00:13:13.587Z,99632.30
2018-12-02T00:15:42.693Z,99625.45
2018-12-02T00:18:12.715Z,99619.69
2018-12-02T00:20:41.955Z,99621.38
2018-12-02T00:23:11.084Z,99613.67
2018-12-02T00:25:40.029Z,99609.70
2018-12-02T00:28:10.140Z,99605.33
2018-12-02T00:30:39.567Z,99608.42
2018-12-02T00:33:08.793Z,99609.21
2018-12-02T00:35:37.740Z,99601.77
2018-12-02T00:38:07.974Z,99597.31
2018-12-02T00:40:37.080Z,99591.19
2018-12-02T00:43:07.464Z,99592.33
2018-12-02T00:45:37.715Z,99578.30
2018-12-02T00:48:07.900Z,99568.75
2018-12-02T00:50:37.034Z,99563.76
2018-12-02T00:53:07.556Z,99567.53
2018-12-02T00:55:41.678Z,99555.56
2018-12-02T00:58:10.748Z,99558.54
2018-12-02T01:00:39.894Z,99553.97
2018-12-02T01:03:10.117Z,99548.11
2018-12-02T01:05:39.447Z,99533.78
2018-12-02T01:08:08.485Z,99539.53
2018-12-02T01:10:37.702Z,99535.10
2018-12-02T01:13:08.694Z,99531.13
2018-12-02T01:15:38.568Z,99527.16
2018-12-02T01:18:07.873Z,99522.90
2018-12-02T01:20:37.703Z,99526.18
2018-12-02T01:23:07.224Z,99534.64
2018-12-02T01:25:36.691Z,99524.78
2018-12-02T01:28:06.164Z,99541.53
2018-12-02T01:30:35.403Z,99543.37
2018-12-02T01:33:04.396Z,99541.56
2018-12-02T01:35:33.404Z,99530.94
2018-12-02T01:38:02.349Z,99530.48
2018-12-02T01:40:31.262Z,99524.70
2018-12-02T01:43:00.283Z,99530.75
2018-12-02T01:45:29.414Z,99532.56
2018-12-02T01:47:58.422Z,99521.98
2018-12-02T01:50:27.447Z,99529.95
2018-12-02T01:52:57.279Z,99522.55
2018-12-02T01:55:26.220Z,99519.67
2018-12-02T01:57:55.180Z,99517.58
2018-12-02T02:00:25.399Z,99505.70
2018-12-02T02:02:55.209Z,99503.36
2018-12-02T02:05:25.058Z,99502.80
2018-12-02T02:07:53.996Z,99497.23
2018-12-02T02:10:24.817Z,99490.06
2018-12-02T02:12:53.809Z,99494.59
2018-12-02T02:15:22.766Z,99487.15
2018-12-02T02:17:51.783Z,99486.16
2018-12-02T02:20:22.754Z,99489.33
2018-12-02T02:22:51.740Z,99485.89
2018-12-02T02:25:21.637Z,99481.89
2018-12-02T02:27:53.131Z,99477.45
2018-12-02T02:30:24.070Z,99469.22
2018-12-02T02:32:53.075Z,99467.36
2018-12-02T02:35:22.620Z,99455.78
2018-12-02T02:37:52.744Z,99450.84
2018-12-02T02:40:25.601Z,99450.58
2018-12-02T02:42:54.544Z,99441.88
2018-12-02T02:45:23.613Z,99436.55
2018-12-02T02:47:52.549Z,99437.95
2018-12-02T02:50:23.271Z,99441.48
2018-12-02T02:52:58.379Z,99428.51
2018-12-02T02:55:27.427Z,99420.89
2018-12-02T02:57:56.596Z,99418.27
2018-12-02T03:00:26.413Z,99406.95
2018-12-02T03:02:55.432Z,99420.45
2018-12-02T03:05:24.384Z,99406.50
2018-12-02T03:07:53.411Z,99405.97
2018-12-02T03:10:22.773Z,99409.70
2018-12-02T03:12:52.792Z,99407.14
2018-12-02T03:15:22.427Z,99405.05
2018-12-02T03:17:51.373Z,99402.71
2018-12-02T03:20:21.418Z,99398.77
2018-12-02T03:22:52.232Z,99396.39
2018-12-02T03:25:22.047Z,99397.22
2018-12-02T03:27:51.425Z,99394.88
2018-12-02T03:30:22.300Z,99378.20
2018-12-02T03:32:51.477Z,99372.90
2018-12-02T03:35:21.556Z,99368.95
2018-12-02T03:37:50.796Z,99364.98
2018-12-02T03:40:21.643Z,99358.67
2018-12-02T03:42:51.263Z,99343.81
2018-12-02T03:45:21.370Z,99334.56
2018-12-02T03:47:50.308Z,99329.03
2018-12-02T03:50:21.140Z,99321.88
2018-12-02T03:52:50.127Z,99324.02
2018-12-02T03:55:19.072Z,99316.34
2018-12-02T03:57:48.563Z,99312.65
2018-12-02T04:00:21.479Z,99318.78
2018-12-02T04:02:51.004Z,99312.70
2018-12-02T04:05:23.003Z,99308.96
2018-12-02T04:07:52.242Z,99304.75
2018-12-02T04:10:21.700Z,99302.91
2018-12-02T04:12:51.570Z,99297.06
2018-12-02T04:15:22.291Z,99298.95
2018-12-02T04:17:51.292Z,99289.97
2018-12-02T04:20:20.713Z,99287.06
2018-12-02T04:22:50.533Z,99278.05
2018-12-02T04:25:23.843Z,99286.27
2018-12-02T04:27:52.960Z,99278.05
2018-12-02T04:30:22.705Z,99274.88
2018-12-02T04:32:52.399Z,99284.98
2018-12-02T04:35:23.321Z,99278.34
2018-12-02T04:37:52.277Z,99275.70
2018-12-02T04:40:21.306Z,99264.27
2018-12-02T04:42:50.269Z,99265.87
2018-12-02T04:45:19.809Z,99259.48
2018-12-02T04:47:48.958Z,99264.27
2018-12-02T04:50:22.844Z,99257.92
2018-12-02T04:52:51.757Z,99257.61
2018-12-02T04:55:20.707Z,99248.08
2018-12-02T04:57:49.810Z,99240.10
2018-12-02T05:00:19.664Z,99240.61
2018-12-02T05:02:50.497Z,99232.66
2018-12-02T05:05:22.522Z,99225.78
2018-12-02T05:07:51.523Z,99219.12
2018-12-02T05:10:21.096Z,99214.35
2018-12-02T05:12:50.816Z,99226.84
2018-12-02T05:15:20.592Z,99216.74
2018-12-02T05:17:49.568Z,99214.39
2018-12-02T05:20:19.483Z,99206.95
2018-12-02T05:22:48.425Z,99217.02
2018-12-02T05:25:18.642Z,99204.55
2018-12-02T05:27:46.929Z,99201.09
2018-12-02T05:30:18.917Z,99204.25
2018-12-02T05:32:48.909Z,99201.88
2018-12-02T05:35:17.826Z,99200.01
2018-12-02T05:37:46.777Z,99201.59
2018-12-02T05:40:20.663Z,99185.97
2018-12-02T05:42:49.652Z,99191.28
2018-12-02T05:45:19.040Z,99181.45
2018-12-02T05:47:48.035Z,99167.12
2018-12-02T05:50:23.905Z,99166.58
2018-12-02T05:52:57.908Z,99162.37
2018-12-02T05:55:29.149Z,99176.95
2018-12-02T05:57:58.101Z,99169.28
2018-12-02T06:00:27.100Z,99158.67
2018-12-02T06:02:56.019Z,99159.17
2018-12-02T06:05:25.034Z,99153.88
2018-12-02T06:07:53.675Z,99140.91
2018-12-02T06:10:23.010Z,99165.03
2018-12-02T06:12:52.034Z,99153.10
2018-12-02T06:15:22.044Z,99157.08
2018-12-02T06:17:51.159Z,99150.45
2018-12-02T06:20:21.962Z,99148.58
2018-12-02T06:22:52.696Z,99140.08
2018-12-02T06:25:21.619Z,99147.48
2018-12-02T06:27:50.635Z,99142.46
2018-12-02T06:30:22.353Z,99133.17
2018-12-02T06:32:53.544Z,99137.14
2018-12-02T06:35:22.531Z,99128.34
2018-12-02T06:37:52.447Z,99129.13
2018-12-02T06:40:23.443Z,99146.88
2018-12-02T06:42:52.592Z,99131.77
2018-12-02T06:45:23.616Z,99146.09
2018-12-02T06:47:53.481Z,99136.81
2018-12-02T06:50:30.209Z,99145.30
2018-12-02T06:53:00.928Z,99151.39
2018-12-02T06:55:33.713Z,99155.91
2018-12-02T06:58:10.063Z,99144.22
2018-12-02T07:00:44.904Z,99140.50
2018-12-02T07:05:24.599Z,99153.50
2018-12-02T07:07:53.597Z,99131.77
2018-12-02T07:10:23.628Z,99135.48
2018-12-02T07:12:52.583Z,99146.87
2018-12-02T07:15:21.524Z,99145.80
2018-12-02T07:17:50.596Z,99142.36
2018-12-02T07:20:19.537Z,99141.55
2018-12-02T07:22:48.603Z,99137.25
2018-12-02T07:25:17.530Z,99138.03
2018-12-02T07:27:46.487Z,99139.36
2018-12-02T07:30:15.546Z,99136.11
2018-12-02T07:32:44.480Z,99115.91
2018-12-02T07:35:14.426Z,99116.98
2018-12-02T07:37:46.499Z,99107.11
2018-12-02T07:40:25.415Z,99097.22
2018-12-02T07:42:54.379Z,99115.16
2018-12-02T07:45:23.347Z,99105.09
2018-12-02T07:47:52.458Z,99100.34
2018-12-02T07:50:21.380Z,99105.91
2018-12-02T07:52:50.399Z,99093.22
2018-12-02T07:55:19.420Z,99107.55
2018-12-02T07:57:48.951Z,99098.30
2018-12-02T08:00:18.162Z,99135.39
2018-12-02T08:02:47.150Z,99112.09
2018-12-02T08:05:17.035Z,99104.92
2018-12-02T08:07:47.476Z,99092.74
2018-12-02T08:10:17.482Z,99098.49
2018-12-02T08:12:46.500Z,99104.27
2018-12-02T08:15:16.625Z,99106.06
2018-12-02T08:17:45.846Z,99099.97
2018-12-02T08:20:16.686Z,99088.05
2018-12-02T08:22:51.250Z,99098.66
2018-12-02T08:25:16.551Z,99092.30
2018-12-02T08:27:46.227Z,99088.09
2018-12-02T08:30:21.432Z,99083.61
2018-12-02T08:32:50.473Z,99086.01
2018-12-02T08:35:20.624Z,99071.71
2018-12-02T08:37:51.053Z,99062.49
2018-12-02T08:40:20.131Z,99050.53
2018-12-02T08:42:49.131Z,99059.84
2018-12-02T08:45:18.610Z,99052.70
2018-12-02T08:47:47.523Z,99052.95
2018-12-02T08:50:18.334Z,99044.48
2018-12-02T08:55:12.049Z,99053.24
2018-12-02T08:57:41.017Z,99040.02
2018-12-02T09:00:12.564Z,99032.08
2018-12-02T09:02:41.855Z,99020.42
2018-12-02T09:05:12.307Z,99036.28
2018-12-02T09:07:41.445Z,99025.95
2018-12-02T09:10:13.838Z,99015.91
2018-12-02T09:12:42.836Z,99016.20
2018-12-02T09:15:11.853Z,99011.16
2018-12-02T09:17:40.932Z,99004.52
2018-12-02T09:20:12.278Z,99007.67
2018-12-02T09:22:41.265Z,98997.31
2018-12-02T09:25:10.193Z,98989.10
2018-12-02T09:27:39.229Z,98989.64
2018-12-02T09:30:10.841Z,98989.15
2018-12-02T09:32:39.857Z,98988.86
2018-12-02T09:35:09.932Z,98991.53
2018-12-02T09:37:38.937Z,98991.80
2018-12-02T09:40:09.705Z,98984.91
2018-12-02T09:42:38.796Z,98977.83
2018-12-02T09:45:09.779Z,98992.65
2018-12-02T09:47:38.965Z,98959.59
2018-12-02T09:50:10.472Z,98967.57
2018-12-02T09:52:39.441Z,98947.97
2018-12-02T09:55:13.259Z,98944.01
2018-12-02T09:57:42.219Z,98948.23
2018-12-02T10:00:15.373Z,98942.94
2018-12-02T10:02:45.166Z,98934.44
2018-12-02T10:05:14.210Z,98929.97
2018-12-02T10:07:43.189Z,98927.58
2018-12-02T10:10:26.876Z,98935.52
2018-12-02T10:12:58.171Z,98914.08
2018-12-02T10:15:27.808Z,98915.64
2018-12-02T10:17:57.328Z,98904.27
2018-12-02T10:20:26.326Z,98921.47
2018-12-02T10:22:55.543Z,98906.91
2018-12-02T10:25:25.316Z,98895.02
2018-12-02T10:27:54.280Z,98892.91
2018-12-02T10:30:24.809Z,98886.02
2018-12-02T10:32:55.529Z,98886.84
2018-12-02T10:35:24.574Z,98883.13
2018-12-02T10:37:54.120Z,98883.17
2018-12-02T10:40:25.964Z,98875.77
2018-12-02T10:42:55.021Z,98880.28
2018-12-02T10:45:25.079Z,98870.47
2018-12-02T10:47:55.257Z,98861.45
2018-12-02T10:50:28.334Z,98854.58
2018-12-02T10:52:58.830Z,98860.13
2018-12-02T10:55:35.152Z,98862.81
2018-12-02T10:58:04.140Z,98858.84
2018-12-02T11:00:38.545Z,98842.41
2018-12-02T11:03:07.515Z,98839.50
2018-12-02T11:05:36.628Z,98843.19
2018-12-02T11:08:06.061Z,98841.08
2018-12-02T11:10:35.071Z,98844.52
2018-12-02T11:13:04.239Z,98831.02
2018-12-02T11:15:33.206Z,98834.18
2018-12-02T11:18:02.252Z,98836.30
2018-12-02T11:20:31.205Z,98830.75
2018-12-02T11:23:00.167Z,98833.14
2018-12-02T11:25:29.147Z,98829.17
2018-12-02T11:27:58.200Z,98833.67
2018-12-02T11:30:27.310Z,98819.36
2018-12-02T11:32:57.614Z,98814.84
2018-12-02T11:35:26.636Z,98810.63
2018-12-02T11:37:55.608Z,98800.83
2018-12-02T11:40:24.630Z,98798.44
2018-12-02T11:42:54.086Z,98796.30
2018-12-02T11:45:23.178Z,98788.89
2018-12-02T11:47:53.330Z,98795.22
2018-12-02T11:50:24.350Z,98784.38
2018-12-02T11:52:56.232Z,98776.44
2018-12-02T11:55:25.238Z,98776.94
2018-12-02T11:57:55.629Z,98774.83
2018-12-02T12:00:27.803Z,98771.39
2018-12-02T12:02:57.753Z,98774.54
2018-12-02T12:05:27.028Z,98771.36
2018-12-02T12:07:56.032Z,98764.73
2018-12-02T12:10:26.099Z,98761.84
2018-12-02T12:12:56.177Z,98763.93
2018-12-02T12:15:26.341Z,98750.42
2018-12-02T12:17:56.550Z,98756.23
2018-12-02T12:20:26.885Z,98759.41
2018-12-02T12:22:56.096Z,98750.41
2018-12-02T12:25:25.211Z,98746.44
2018-12-02T12:27:55.239Z,98736.64
2018-12-02T12:30:32.097Z,98731.89
2018-12-02T12:33:01.168Z,98736.12
2018-12-02T12:35:30.175Z,98738.80
2018-12-02T12:37:59.135Z,98729.80
2018-12-02T12:40:30.141Z,98721.86
2018-12-02T12:43:12.436Z,98720.00
2018-12-02T12:45:41.384Z,98724.26
2018-12-02T12:48:10.404Z,98717.64
2018-12-02T12:50:39.633Z,98729.30
2018-12-02T12:53:08.625Z,98720.83
2018-12-02T12:55:37.870Z,98723.76
2018-12-02T12:58:07.598Z,98712.63
2018-12-02T13:00:37.458Z,98708.66
2018-12-02T13:03:07.056Z,98701.00
2018-12-02T13:05:36.066Z,98699.68
2018-12-02T13:08:05.675Z,98691.20
2018-12-02T13:10:34.641Z,98707.08
2018-12-02T13:13:03.713Z,98694.64
2018-12-02T13:15:32.671Z,98701.25
2018-12-02T13:18:02.595Z,98699.14
2018-12-02T13:21:02.644Z,98700.20
2018-12-02T13:23:31.599Z,98692.52
2018-12-02T13:26:00.556Z,98685.64
2018-12-02T13:28:29.618Z,98686.17
2018-12-02T13:30:58.682Z,98683.25
2018-12-02T13:33:27.734Z,98677.69
2018-12-02T13:35:56.901Z,98687.23
2018-12-02T13:38:25.853Z,98682.96
2018-12-02T13:40:54.801Z,98681.11
2018-12-02T13:43:24.551Z,98671.58
2018-12-02T13:45:53.505Z,98669.95
2018-12-02T13:48:22.456Z,98658.56
2018-12-02T13:50:53.809Z,98671.53
2018-12-02T13:53:22.830Z,98668.88
2018-12-02T13:55:51.929Z,98663.32
2018-12-02T13:58:20.867Z,98660.37
2018-12-02T14:00:50.802Z,98664.09
2018-12-02T14:03:19.723Z,98672.83
2018-12-02T14:05:49.145Z,98665.69
2018-12-02T14:08:18.220Z,98663.28
2018-12-02T14:10:47.199Z,98659.83
2018-12-02T14:13:19.685Z,98654.27
2018-12-02T14:16:02.367Z,98657.72
2018-12-02T14:18:36.688Z,98649.75
2018-12-02T14:21:06.120Z,98660.33
2018-12-02T14:23:35.663Z,98644.96
2018-12-02T14:26:09.072Z,98653.45
2018-12-02T14:28:45.343Z,98643.36
2018-12-02T14:31:14.913Z,98639.39
2018-12-02T14:33:43.920Z,98644.70
2018-12-02T14:36:12.978Z,98640.18
2018-12-02T14:38:41.941Z,98638.34
2018-12-02T14:41:10.900Z,98633.05
2018-12-02T14:43:39.885Z,98627.99
2018-12-02T14:46:08.872Z,98629.05
2018-12-02T14:48:38.187Z,98628.49
2018-12-02T14:51:07.243Z,98627.45
2018-12-02T14:53:36.613Z,98633.24
2018-12-02T14:56:07.673Z,98626.63
2018-12-02T14:58:36.635Z,98633.23
2018-12-02T15:01:05.804Z,98631.89
2018-12-02T15:03:34.790Z,98630.04
2018-12-02T15:06:03.800Z,98631.38
2018-12-02T15:08:32.781Z,98625.81
2018-12-02T15:11:01.771Z,98627.14
2018-12-02T15:13:30.828Z,98620.53
2018-12-02T15:16:00.082Z,98621.31
2018-12-02T15:18:29.677Z,98612.34
2018-12-02T15:20:58.680Z,98621.65
2018-12-02T15:23:27.681Z,98622.45
2018-12-02T15:25:56.693Z,98624.28
2018-12-02T15:29:28.727Z,98617.42
2018-12-02T15:31:59.223Z,98616.89
2018-12-02T15:34:28.153Z,98623.27
2018-12-02T15:36:57.111Z,98614.52
2018-12-02T15:39:26.135Z,98611.63
2018-12-02T15:41:55.094Z,98607.89
2018-12-02T15:44:24.031Z,98604.75
2018-12-02T15:46:52.988Z,98605.26
2018-12-02T15:49:21.996Z,98607.64
2018-12-02T15:51:51.013Z,98606.33
2018-12-02T15:54:20.008Z,98609.76
2018-12-02T15:56:48.952Z,98611.36
2018-12-02T15:59:18.003Z,98606.05
2018-12-02T16:01:47.062Z,98603.92
2018-12-02T16:04:16.084Z,98597.03
2018-12-02T16:06:45.028Z,98601.80
2018-12-02T16:09:15.016Z,98603.09
2018-12-02T16:11:42.965Z,98605.50
2018-12-02T16:14:11.923Z,98612.91
2018-12-02T16:16:40.906Z,98600.20
2018-12-02T16:19:09.878Z,98599.95
2018-12-02T16:21:38.816Z,98610.01
2018-12-02T16:24:07.782Z,98603.91
2018-12-02T16:26:36.785Z,98601.25
2018-12-02T16:29:05.980Z,98601.76
2018-12-02T16:31:34.997Z,98600.16
2018-12-02T16:34:04.033Z,98604.94
2018-12-02T16:36:33.018Z,98594.56
2018-12-02T16:39:01.994Z,98604.61
2018-12-02T16:41:31.072Z,98598.78
2018-12-02T16:44:00.038Z,98598.78
2018-12-02T16:46:29.009Z,98602.22
2018-12-02T16:48:58.011Z,98597.97
2018-12-02T16:51:26.993Z,98599.54
2018-12-02T16:53:56.097Z,98595.02
2018-12-02T16:56:25.367Z,98599.27
2018-12-02T16:59:27.974Z,98600.29
2018-12-02T17:02:04.946Z,98597.38
2018-12-02T17:04:29.025Z,98607.98
2018-12-02T17:06:58.223Z,98600.80
2018-12-02T17:09:27.214Z,98609.81
2018-12-02T17:11:56.306Z,98604.23
2018-12-02T17:14:25.301Z,98602.08
2018-12-02T17:16:54.296Z,98609.50
2018-12-02T17:19:23.282Z,98602.83
2018-12-02T17:21:52.256Z,98603.37
2018-12-02T17:24:21.232Z,98603.34
2018-12-02T17:26:50.173Z,98599.09
2018-12-02T17:29:20.391Z,98606.75
2018-12-02T17:31:54.567Z,98606.47
2018-12-02T17:34:23.578Z,98613.35
2018-12-02T17:36:53.015Z,98597.12
2018-12-02T17:39:25.139Z,98601.89
2018-12-02T17:42:02.762Z,98620.15
2018-12-02T17:44:31.851Z,98608.75
2018-12-02T17:47:00.782Z,98603.70
2018-12-02T17:49:29.860Z,98610.03
2018-12-02T17:51:58.899Z,98617.16
2018-12-02T17:54:27.857Z,98600.45
2018-12-02T17:56:56.796Z,98606.02
2018-12-02T17:59:25.745Z,98617.39
2018-12-02T18:01:54.757Z,98612.58
2018-12-02T18:04:23.704Z,98614.64
2018-12-02T18:06:52.676Z,98614.63
2018-12-02T18:09:21.612Z,98616.44
2018-12-02T18:11:50.683Z,98616.98
2018-12-02T18:14:19.671Z,98619.10
2018-12-02T18:16:50.224Z,98622.00
2018-12-02T18:19:17.719Z,98623.26
2018-12-02T18:21:46.667Z,98620.84
2018-12-02T18:24:15.654Z,98613.16
2018-12-02T18:26:44.683Z,98622.69
2018-12-02T18:29:13.707Z,98623.38
2018-12-02T18:31:43.049Z,98614.89
2018-12-02T18:34:12.106Z,98621.83
2018-12-02T18:36:41.095Z,98622.37
2018-12-02T18:39:12.332Z,98611.99
2018-12-02T18:41:44.284Z,98623.67
2018-12-02T18:44:15.016Z,98619.41
2018-12-02T18:46:43.976Z,98624.19
2018-12-02T18:49:12.985Z,98620.95
2018-12-02T18:51:41.960Z,98623.59
2018-12-02T18:54:11.213Z,98636.87
2018-12-02T18:56:40.874Z,98625.45
2018-12-02T18:59:09.864Z,98639.80
2018-12-02T19:01:38.821Z,98639.23
2018-12-02T19:04:07.965Z,98642.97
2018-12-02T19:06:36.925Z,98637.90
2018-12-02T19:09:09.509Z,98631.77
2018-12-02T19:11:38.522Z,98631.50
2018-12-02T19:14:07.525Z,98630.17
2018-12-02T19:16:36.543Z,98637.58
2018-12-02T19:19:06.016Z,98630.63
2018-12-02T19:21:35.016Z,98635.13
2018-12-02T19:24:04.029Z,98630.30
2018-12-02T19:26:33.006Z,98627.34
2018-12-02T19:29:01.974Z,98636.89
2018-12-02T19:31:30.912Z,98639.70
2018-12-02T19:33:59.858Z,98632.24
2018-12-02T19:36:31.695Z,98635.72
2018-12-02T19:39:00.688Z,98638.55
2018-12-02T19:41:30.391Z,98639.85
2018-12-02T19:43:59.478Z,98639.27
2018-12-02T19:46:28.489Z,98642.69
2018-12-02T19:48:57.443Z,98640.20
2018-12-02T19:51:26.424Z,98650.56
2018-12-02T19:53:55.431Z,98654.18
2018-12-02T19:56:24.387Z,98651.52
2018-12-02T19:58:53.355Z,98647.50
2018-12-02T20:01:22.290Z,98665.56
2018-12-02T20:03:51.240Z,98644.83
2018-12-02T20:06:20.281Z,98651.75
2018-12-02T20:08:49.256Z,98658.13
2018-12-02T20:11:18.169Z,98654.42
2018-12-02T20:13:47.125Z,98654.42
2018-12-02T20:16:18.611Z,98657.96
2018-12-02T20:18:48.016Z,98663.28
2018-12-02T20:21:18.299Z,98661.71
2018-12-02T20:23:52.695Z,98648.45
2018-12-02T20:26:21.652Z,98659.90
2018-12-02T20:28:53.620Z,98657.52
2018-12-02T20:31:24.672Z,98647.16
2018-12-02T20:33:53.704Z,98651.14
2018-12-02T20:36:22.767Z,98652.74
2018-12-02T20:38:51.734Z,98654.86
2018-12-02T20:41:20.756Z,98651.72
2018-12-02T20:43:49.748Z,98656.22
2018-12-02T20:46:18.929Z,98661.56
2018-12-02T20:48:47.911Z,98664.80
2018-12-02T20:51:17.118Z,98665.31
2018-12-02T20:53:46.116Z,98665.86
2018-12-02T20:56:15.101Z,98673.34
2018-12-02T20:58:44.049Z,98671.83
2018-12-02T21:01:13.461Z,98671.05
2018-12-02T21:03:45.625Z,98673.44
2018-12-02T21:06:20.390Z,98676.97
2018-12-02T21:08:49.485Z,98674.15
2018-12-02T21:11:18.679Z,98672.55
2018-12-02T21:13:47.659Z,98667.02
2018-12-02T21:16:16.603Z,98670.48
2018-12-02T21:18:45.634Z,98677.18
2018-12-02T21:21:14.612Z,98668.69
2018-12-02T21:23:43.803Z,98667.66
2018-12-02T21:26:13.098Z,98675.11
2018-12-02T21:28:42.446Z,98680.70
2018-12-02T21:31:11.379Z,98675.73
2018-12-02T21:33:40.348Z,98683.42
2018-12-02T21:36:09.571Z,98680.80
2018-12-02T21:38:38.560Z,98683.73
2018-12-02T21:41:07.497Z,98679.51
2018-12-02T21:43:36.520Z,98680.34
2018-12-02T21:46:27.067Z,98689.02
2018-12-02T21:48:58.189Z,98692.27
2018-12-02T21:51:27.149Z,98693.08
2018-12-02T21:53:56.155Z,98695.48
2018-12-02T21:56:29.663Z,98690.44
2018-12-02T21:58:58.612Z,98695.20
2018-12-02T22:01:27.592Z,98689.87
2018-12-02T22:03:56.494Z,98687.23
2018-12-02T22:06:25.425Z,98695.17
2018-12-02T22:08:54.333Z,98691.70
2018-12-02T22:11:23.337Z,98690.61
2018-12-02T22:13:52.239Z,98695.17
2018-12-02T22:16:21.207Z,98700.47
2018-12-02T22:18:50.147Z,98703.93
2018-12-02T22:21:19.313Z,98702.60
2018-12-02T22:23:48.254Z,98697.29
2018-12-02T22:26:17.247Z,98699.97
2018-12-02T22:28:46.396Z,98703.97
2018-12-02T22:31:15.340Z,98706.33
2018-12-02T22:33:44.293Z,98698.36
2018-12-02T22:36:14.185Z,98706.88
2018-12-02T22:38:42.248Z,98702.60
2018-12-02T22:41:11.183Z,98693.28
2018-12-02T22:43:40.154Z,98693.55
2018-12-02T22:46:09.440Z,98688.22
2018-12-02T22:48:38.471Z,98696.45
2018-12-02T22:51:08.283Z,98697.27
2018-12-02T22:53:37.249Z,98703.14
2018-12-02T22:56:06.527Z,98696.20
2018-12-02T22:58:35.493Z,98699.69
2018-12-02T23:01:09.924Z,98697.55
2018-12-02T23:03:38.939Z,98692.81
2018-12-02T23:06:08.058Z,98686.98
2018-12-02T23:08:37.007Z,98689.12
2018-12-02T23:11:06.576Z,98680.91
2018-12-02T23:13:35.512Z,98684.91
2018-12-02T23:16:04.536Z,98680.63
2018-12-02T23:18:33.452Z,98678.78
2018-12-02T23:21:02.383Z,98691.05
2018-12-02T23:23:31.323Z,98681.22
2018-12-02T23:26:00.280Z,98679.62
2018-12-02T23:28:29.203Z,98672.49
2018-12-02T23:30:58.152Z,98674.63
2018-12-02T23:33:27.306Z,98675.17
2018-12-02T23:35:56.304Z,98674.87
2018-12-02T23:38:25.237Z,98664.55
2018-12-02T23:40:54.174Z,98662.92
2018-12-02T23:43:23.119Z,98661.89
2018-12-02T23:45:52.149Z,98658.72
2018-12-02T23:48:21.105Z,98663.16
2018-12-02T23:50:50.536Z,98663.47
2018-12-02T23:53:19.461Z,98659.23
2018-12-02T23:55:48.404Z,98656.31
2018-12-02T23:58:17.423Z,98655.27
